sensor_id;sensor_type;location;lat;lon;timestamp;pressure;altitude;pressure_sealevel;temperature;humidity
10638;BME280;47007;49.252;8.904;2023-05-12T00:00:24;99493.16;;;12.61;100.00
10638;BME280;47007;49.252;8.904;2023-05-12T00:01:06;99528.97;;;12.78;100.00
10638;BME280;47007;49.252;8.904;2023-05-12T00:01:48;99514.88;;;12.71;100.00
10638;BME280;47007;49.252;8.904;2023-05-12T00:02:29;99517.72;;;12.76;100.00
10638;BME280;47007;49.252;8.904;2023-05-12T00:03:11;99498.09;;;12.57;100.00
10638;BME280;47007;49.252;8.904;2023-05-12T00:03:53;99522.84;;;12.71;100.00
10638;BME280;47007;49.252;8.904;2023-05-12T00:04:35;99459.22;;;12.30;100.00
10638;BME280;47007;49.252;8.904;2023-05-12T00:05:17;99489.91;;;12.46;100.00
10638;BME280;47007;49.252;8.904;2023-05-12T00:06:00;99513.66;;;12.61;100.00
10638;BME280;47007;49.252;8.904;2023-05-12T00:06:44;99496.03;;;12.46;100.00
10638;BME280;47007;49.252;8.904;2023-05-12T00:07:25;99520.38;;;12.63;100.00
10638;BME280;47007;49.252;8.904;2023-05-12T00:08:07;99516.28;;;12.54;100.00
10638;BME280;47007;49.252;8.904;2023-05-12T00:08:49;99525.88;;;12.62;100.00
10638;BME280;47007;49.252;8.904;2023-05-12T00:09:31;99437.72;;;12.12;100.00
10638;BME280;47007;49.252;8.904;2023-05-12T00:10:13;99512.81;;;12.53;100.00
10638;BME280;47007;49.252;8.904;2023-05-12T00:10:55;99473.09;;;12.26;100.00
10638;BME280;47007;49.252;8.904;2023-05-12T00:11:36;99518.97;;;12.61;100.00
10638;BME280;47007;49.252;8.904;2023-05-12T00:12:18;99519.34;;;12.64;100.00
10638;BME280;47007;49.252;8.904;2023-05-12T00:13:00;99491.53;;;12.53;100.00
10638;BME280;47007;49.252;8.904;2023-05-12T00:13:42;99488.69;;;12.55;100.00
10638;BME280;47007;49.252;8.904;2023-05-12T00:14:24;99465.75;;;12.41;100.00
10638;BME280;47007;49.252;8.904;2023-05-12T00:15:06;99484.81;;;12.57;100.00
10638;BME280;47007;49.252;8.904;2023-05-12T00:15:49;99517.13;;;12.81;100.00
10638;BME280;47007;49.252;8.904;2023-05-12T00:16:31;99487.44;;;12.64;100.00
10638;BME280;47007;49.252;8.904;2023-05-12T00:17:13;99515.69;;;12.85;100.00
10638;BME280;47007;49.252;8.904;2023-05-12T00:17:54;99516.28;;;12.87;100.00
10638;BME280;47007;49.252;8.904;2023-05-12T00:18:36;99496.44;;;12.76;100.00
10638;BME280;47007;49.252;8.904;2023-05-12T00:19:18;99498.28;;;12.76;100.00
10638;BME280;47007;49.252;8.904;2023-05-12T00:20:00;99495.44;;;12.77;100.00
10638;BME280;47007;49.252;8.904;2023-05-12T00:20:43;99495.22;;;12.79;100.00
10638;BME280;47007;49.252;8.904;2023-05-12T00:21:24;99502.59;;;12.90;100.00
10638;BME280;47007;49.252;8.904;2023-05-12T00:22:06;99495.22;;;12.79;100.00
10638;BME280;47007;49.252;8.904;2023-05-12T00:22:47;99468.84;;;12.64;100.00
10638;BME280;47007;49.252;8.904;2023-05-12T00:23:29;99506.88;;;12.91;100.00
10638;BME280;47007;49.252;8.904;2023-05-12T00:24:11;99466.78;;;12.66;100.00
10638;BME280;47007;49.252;8.904;2023-05-12T00:24:53;99478.84;;;12.75;100.00
10638;BME280;47007;49.252;8.904;2023-05-12T00:25:34;99500.75;;;12.84;100.00
10638;BME280;47007;49.252;8.904;2023-05-12T00:26:16;99480.69;;;12.75;100.00
10638;BME280;47007;49.252;8.904;2023-05-12T00:26:59;99489.91;;;12.79;100.00
10638;BME280;47007;49.252;8.904;2023-05-12T00:27:41;99499.91;;;12.90;100.00
10638;BME280;47007;49.252;8.904;2023-05-12T00:28:23;99482.13;;;12.77;100.00
10638;BME280;47007;49.252;8.904;2023-05-12T00:29:04;99471.50;;;12.71;100.00
10638;BME280;47007;49.252;8.904;2023-05-12T00:29:46;99500.53;;;12.92;100.00
10638;BME280;47007;49.252;8.904;2023-05-12T00:30:28;99473.53;;;12.75;100.00
10638;BME280;47007;49.252;8.904;2023-05-12T00:31:09;99498.91;;;12.91;100.00
10638;BME280;47007;49.252;8.904;2023-05-12T00:31:51;99498.91;;;12.91;100.00
10638;BME280;47007;49.252;8.904;2023-05-12T00:32:33;99490.13;;;12.84;100.00
10638;BME280;47007;49.252;8.904;2023-05-12T00:33:15;99494.59;;;12.90;100.00
10638;BME280;47007;49.252;8.904;2023-05-12T00:33:57;99474.34;;;12.76;100.00
10638;BME280;47007;49.252;8.904;2023-05-12T00:34:39;99497.66;;;12.87;100.00
10638;BME280;47007;49.252;8.904;2023-05-12T00:35:21;99470.69;;;12.70;100.00
10638;BME280;47007;49.252;8.904;2023-05-12T00:36:03;99487.66;;;12.82;100.00
10638;BME280;47007;49.252;8.904;2023-05-12T00:36:45;99478.25;;;12.73;100.00
10638;BME280;47007;49.252;8.904;2023-05-12T00:37:26;99456.19;;;12.59;100.00
10638;BME280;47007;49.252;8.904;2023-05-12T00:38:08;99480.69;;;12.75;100.00
10638;BME280;47007;49.252;8.904;2023-05-12T00:38:50;99479.50;;;12.71;100.00
10638;BME280;47007;49.252;8.904;2023-05-12T00:39:32;99472.50;;;12.63;100.00
10638;BME280;47007;49.252;8.904;2023-05-12T00:40:14;99498.91;;;12.78;100.00
10638;BME280;47007;49.252;8.904;2023-05-12T00:40:56;99478.03;;;12.62;100.00
10638;BME280;47007;49.252;8.904;2023-05-12T00:41:37;99501.38;;;12.73;100.00
10638;BME280;47007;49.252;8.904;2023-05-12T00:42:19;99488.06;;;12.59;100.00
10638;BME280;47007;49.252;8.904;2023-05-12T00:43:01;99494.00;;;12.68;100.00
10638;BME280;47007;49.252;8.904;2023-05-12T00:43:42;99469.66;;;12.51;100.00
10638;BME280;47007;49.252;8.904;2023-05-12T00:44:24;99447.16;;;12.41;100.00
10638;BME280;47007;49.252;8.904;2023-05-12T00:45:06;99501.16;;;12.68;100.00
10638;BME280;47007;49.252;8.904;2023-05-12T00:45:48;99472.09;;;12.53;100.00
10638;BME280;47007;49.252;8.904;2023-05-12T00:46:30;99440.84;;;12.35;100.00
10638;BME280;47007;49.252;8.904;2023-05-12T00:47:12;99483.78;;;12.65;100.00
10638;BME280;47007;49.252;8.904;2023-05-12T00:47:55;99458.19;;;12.51;100.00
10638;BME280;47007;49.252;8.904;2023-05-12T00:48:37;99491.31;;;12.75;100.00
10638;BME280;47007;49.252;8.904;2023-05-12T00:49:19;99472.72;;;12.62;100.00
10638;BME280;47007;49.252;8.904;2023-05-12T00:50:03;99483.97;;;12.70;100.00
10638;BME280;47007;49.252;8.904;2023-05-12T00:50:45;99444.53;;;12.47;100.00
10638;BME280;47007;49.252;8.904;2023-05-12T00:51:30;99488.09;;;12.73;100.00
10638;BME280;47007;49.252;8.904;2023-05-12T00:52:12;99478.03;;;12.75;100.00
10638;BME280;47007;49.252;8.904;2023-05-12T00:52:53;99481.50;;;12.75;100.00
10638;BME280;47007;49.252;8.904;2023-05-12T00:53:35;99472.13;;;12.73;100.00
10638;BME280;47007;49.252;8.904;2023-05-12T00:54:31;99469.47;;;12.73;100.00
10638;BME280;47007;49.252;8.904;2023-05-12T00:55:13;99479.47;;;12.84;100.00
10638;BME280;47007;49.252;8.904;2023-05-12T00:55:55;99484.81;;;12.84;100.00
10638;BME280;47007;49.252;8.904;2023-05-12T00:56:39;99456.97;;;12.67;100.00
10638;BME280;47007;49.252;8.904;2023-05-12T00:57:24;99493.16;;;12.87;100.00
10638;BME280;47007;49.252;8.904;2023-05-12T00:58:06;99487.03;;;12.87;100.00
10638;BME280;47007;49.252;8.904;2023-05-12T00:58:49;99333.50;;;11.90;100.00
10638;BME280;47007;49.252;8.904;2023-05-12T00:59:31;99473.75;;;12.80;100.00
10638;BME280;47007;49.252;8.904;2023-05-12T01:00:13;99486.63;;;12.83;100.00
10638;BME280;47007;49.252;8.904;2023-05-12T01:00:57;99487.03;;;12.87;100.00
10638;BME280;47007;49.252;8.904;2023-05-12T01:01:39;99487.03;;;12.87;100.00
10638;BME280;47007;49.252;8.904;2023-05-12T01:02:21;99491.31;;;12.88;100.00
10638;BME280;47007;49.252;8.904;2023-05-12T01:03:04;99436.31;;;12.49;100.00
10638;BME280;47007;49.252;8.904;2023-05-12T01:03:46;99480.88;;;12.86;100.00
10638;BME280;47007;49.252;8.904;2023-05-12T01:04:28;99481.94;;;12.85;100.00
10638;BME280;47007;49.252;8.904;2023-05-12T01:05:13;99471.69;;;12.76;100.00
10638;BME280;47007;49.252;8.904;2023-05-12T01:06:54;99484.59;;;12.79;100.00
10638;BME280;47007;49.252;8.904;2023-05-12T01:07:38;99476.38;;;12.74;100.00
10638;BME280;47007;49.252;8.904;2023-05-12T01:08:21;99469.44;;;12.66;100.00
10638;BME280;47007;49.252;8.904;2023-05-12T01:09:04;99487.03;;;12.74;100.00
10638;BME280;47007;49.252;8.904;2023-05-12T01:09:46;99480.94;;;12.73;100.00
10638;BME280;47007;49.252;8.904;2023-05-12T01:10:28;99480.94;;;12.73;100.00
10638;BME280;47007;49.252;8.904;2023-05-12T01:11:10;99489.69;;;12.74;100.00
10638;BME280;47007;49.252;8.904;2023-05-12T01:11:53;99465.34;;;12.64;100.00
10638;BME280;47007;49.252;8.904;2023-05-12T01:12:34;99461.06;;;12.63;100.00
10638;BME280;47007;49.252;8.904;2023-05-12T01:13:16;99462.50;;;12.65;100.00
10638;BME280;47007;49.252;8.904;2023-05-12T01:13:59;99479.06;;;12.80;100.00
10638;BME280;47007;49.252;8.904;2023-05-12T01:14:41;99482.53;;;12.81;100.00
10638;BME280;47007;49.252;8.904;2023-05-12T01:15:22;99478.88;;;12.82;100.00
10638;BME280;47007;49.252;8.904;2023-05-12T01:16:06;99470.66;;;12.77;100.00
10638;BME280;47007;49.252;8.904;2023-05-12T01:16:51;99481.31;;;12.83;100.00
10638;BME280;47007;49.252;8.904;2023-05-12T01:17:34;99470.28;;;12.73;100.00
10638;BME280;47007;49.252;8.904;2023-05-12T01:18:20;99485.41;;;12.79;100.00
10638;BME280;47007;49.252;8.904;2023-05-12T01:19:05;99480.09;;;12.73;100.00
10638;BME280;47007;49.252;8.904;2023-05-12T01:20:00;99484.16;;;12.75;100.00
10638;BME280;47007;49.252;8.904;2023-05-12T01:20:43;99480.94;;;12.73;100.00
10638;BME280;47007;49.252;8.904;2023-05-12T01:21:25;99483.59;;;12.73;100.00
10638;BME280;47007;49.252;8.904;2023-05-12T01:22:09;99480.94;;;12.73;100.00
10638;BME280;47007;49.252;8.904;2023-05-12T01:22:51;99481.13;;;12.72;100.00
10638;BME280;47007;49.252;8.904;2023-05-12T01:23:39;99486.44;;;12.72;100.00
10638;BME280;47007;49.252;8.904;2023-05-12T01:24:26;99476.19;;;12.62;100.00
10638;BME280;47007;49.252;8.904;2023-05-12T01:25:10;99477.22;;;12.68;100.00
10638;BME280;47007;49.252;8.904;2023-05-12T01:25:59;99486.84;;;12.69;100.00
10638;BME280;47007;49.252;8.904;2023-05-12T01:26:43;99482.94;;;12.65;100.00
10638;BME280;47007;49.252;8.904;2023-05-12T01:27:25;99481.53;;;12.69;100.00
10638;BME280;47007;49.252;8.904;2023-05-12T01:28:11;99471.50;;;12.71;100.00
10638;BME280;47007;49.252;8.904;2023-05-12T01:28:53;99482.97;;;12.71;100.00
10638;BME280;47007;49.252;8.904;2023-05-12T01:29:36;99476.00;;;12.70;100.00
10638;BME280;47007;49.252;8.904;2023-05-12T01:30:20;99473.53;;;12.62;100.00
10638;BME280;47007;49.252;8.904;2023-05-12T01:31:03;99476.81;;;12.64;100.00
10638;BME280;47007;49.252;8.904;2023-05-12T01:31:45;99482.75;;;12.59;100.00
10638;BME280;47007;49.252;8.904;2023-05-12T01:32:27;99486.44;;;12.58;100.00
10638;BME280;47007;49.252;8.904;2023-05-12T01:33:11;99482.34;;;12.56;100.00
10638;BME280;47007;49.252;8.904;2023-05-12T01:33:53;99488.25;;;12.51;100.00
10638;BME280;47007;49.252;8.904;2023-05-12T01:34:36;99483.97;;;12.50;100.00
10638;BME280;47007;49.252;8.904;2023-05-12T01:35:17;99486.03;;;12.48;100.00
10638;BME280;47007;49.252;8.904;2023-05-12T01:36:07;99481.13;;;12.45;100.00
10638;BME280;47007;49.252;8.904;2023-05-12T01:36:49;99485.41;;;12.46;100.00
10638;BME280;47007;49.252;8.904;2023-05-12T01:37:31;99474.16;;;12.44;100.00
10638;BME280;47007;49.252;8.904;2023-05-12T01:38:14;99486.44;;;12.45;100.00
10638;BME280;47007;49.252;8.904;2023-05-12T01:38:56;99491.75;;;12.45;100.00
10638;BME280;47007;49.252;8.904;2023-05-12T01:39:38;99478.44;;;12.39;100.00
10638;BME280;47007;49.252;8.904;2023-05-12T01:40:21;99488.47;;;12.43;100.00
10638;BME280;47007;49.252;8.904;2023-05-12T01:41:03;99486.84;;;12.42;100.00
10638;BME280;47007;49.252;8.904;2023-05-12T01:41:45;99486.41;;;12.39;100.00
10638;BME280;47007;49.252;8.904;2023-05-12T01:42:29;99489.06;;;12.39;100.00
10638;BME280;47007;49.252;8.904;2023-05-12T01:43:12;99494.38;;;12.39;100.00
10638;BME280;47007;49.252;8.904;2023-05-12T01:43:53;99493.56;;;12.38;100.00
10638;BME280;47007;49.252;8.904;2023-05-12T01:44:35;99479.66;;;12.30;100.00
10638;BME280;47007;49.252;8.904;2023-05-12T01:45:17;99483.75;;;12.32;100.00
10638;BME280;47007;49.252;8.904;2023-05-12T01:45:59;99488.25;;;12.38;100.00
10638;BME280;47007;49.252;8.904;2023-05-12T01:46:43;99485.78;;;12.37;100.00
10638;BME280;47007;49.252;8.904;2023-05-12T01:47:25;99486.22;;;12.40;100.00
10638;BME280;47007;49.252;8.904;2023-05-12T01:48:21;99496.66;;;12.48;100.00
10638;BME280;47007;49.252;8.904;2023-05-12T01:49:03;99490.09;;;12.44;100.00
10638;BME280;47007;49.252;8.904;2023-05-12T01:49:45;99497.69;;;12.54;100.00
10638;BME280;47007;49.252;8.904;2023-05-12T01:50:29;99498.72;;;12.59;100.00
10638;BME280;47007;49.252;8.904;2023-05-12T01:51:11;99495.03;;;12.61;100.00
10638;BME280;47007;49.252;8.904;2023-05-12T01:51:53;99492.75;;;12.64;100.00
10638;BME280;47007;49.252;8.904;2023-05-12T01:52:40;99482.75;;;12.59;100.00
10638;BME280;47007;49.252;8.904;2023-05-12T01:53:26;99499.75;;;12.72;100.00
10638;BME280;47007;49.252;8.904;2023-05-12T01:54:08;99496.06;;;12.73;100.00
10638;BME280;47007;49.252;8.904;2023-05-12T01:54:52;99502.41;;;12.72;100.00
10638;BME280;47007;49.252;8.904;2023-05-12T01:55:34;99500.56;;;12.72;100.00
10638;BME280;47007;49.252;8.904;2023-05-12T01:56:16;99495.44;;;12.71;100.00
10638;BME280;47007;49.252;8.904;2023-05-12T01:56:57;99495.25;;;12.72;100.00
10638;BME280;47007;49.252;8.904;2023-05-12T01:57:39;99490.72;;;12.66;100.00
10638;BME280;47007;49.252;8.904;2023-05-12T01:58:21;99502.19;;;12.73;100.00
10638;BME280;47007;49.252;8.904;2023-05-12T01:59:03;99497.91;;;12.72;100.00
10638;BME280;47007;49.252;8.904;2023-05-12T01:59:45;99507.28;;;12.75;100.00
10638;BME280;47007;49.252;8.904;2023-05-12T02:00:26;99499.31;;;12.75;100.00
10638;BME280;47007;49.252;8.904;2023-05-12T02:01:11;99499.75;;;12.72;100.00
10638;BME280;47007;49.252;8.904;2023-05-12T02:01:52;99502.59;;;12.70;100.00
10638;BME280;47007;49.252;8.904;2023-05-12T02:02:41;99495.66;;;12.69;100.00
10638;BME280;47007;49.252;8.904;2023-05-12T02:03:27;99504.63;;;12.68;100.00
10638;BME280;47007;49.252;8.904;2023-05-12T02:04:10;99494.00;;;12.68;100.00
10638;BME280;47007;49.252;8.904;2023-05-12T02:04:53;99494.00;;;12.68;100.00
10638;BME280;47007;49.252;8.904;2023-05-12T02:05:36;99476.81;;;12.57;100.00
10638;BME280;47007;49.252;8.904;2023-05-12T02:06:18;99503.00;;;12.67;100.00
10638;BME280;47007;49.252;8.904;2023-05-12T02:07:00;99493.59;;;12.65;100.00
10638;BME280;47007;49.252;8.904;2023-05-12T02:07:43;99501.56;;;12.71;100.00
10638;BME280;47007;49.252;8.904;2023-05-12T02:08:26;99496.06;;;12.73;100.00
10638;BME280;47007;49.252;8.904;2023-05-12T02:09:08;99490.13;;;12.71;100.00
10638;BME280;47007;49.252;8.904;2023-05-12T02:09:50;99485.22;;;12.68;100.00
10638;BME280;47007;49.252;8.904;2023-05-12T02:10:32;99490.75;;;12.73;100.00
10638;BME280;47007;49.252;8.904;2023-05-12T02:11:14;99493.19;;;12.81;100.00
10638;BME280;47007;49.252;8.904;2023-05-12T02:11:56;99497.06;;;12.85;100.00
10638;BME280;47007;49.252;8.904;2023-05-12T02:12:38;99487.47;;;12.84;100.00
10638;BME280;47007;49.252;8.904;2023-05-12T02:13:20;99492.16;;;12.88;100.00
10638;BME280;47007;49.252;8.904;2023-05-12T02:14:02;99483.78;;;12.85;100.00
10638;BME280;47007;49.252;8.904;2023-05-12T02:14:43;99477.63;;;12.84;100.00
10638;BME280;47007;49.252;8.904;2023-05-12T02:15:25;99488.66;;;12.94;100.00
10638;BME280;47007;49.252;8.904;2023-05-12T02:16:08;99479.47;;;12.90;100.00
10638;BME280;47007;49.252;8.904;2023-05-12T02:16:50;99487.25;;;12.92;100.00
10638;BME280;47007;49.252;8.904;2023-05-12T02:17:34;99484.56;;;12.99;100.00
10638;BME280;47007;49.252;8.904;2023-05-12T02:18:18;99487.00;;;13.00;100.00
10638;BME280;47007;49.252;8.904;2023-05-12T02:19:00;99484.34;;;13.00;100.00
10638;BME280;47007;49.252;8.904;2023-05-12T02:19:42;99477.84;;;12.96;100.00
10638;BME280;47007;49.252;8.904;2023-05-12T02:20:26;99488.66;;;13.01;100.00
10638;BME280;47007;49.252;8.904;2023-05-12T02:21:09;99488.84;;;13.00;100.00
10638;BME280;47007;49.252;8.904;2023-05-12T02:21:51;99489.47;;;13.02;100.00
10638;BME280;47007;49.252;8.904;2023-05-12T02:22:35;99487.84;;;13.01;100.00
10638;BME280;47007;49.252;8.904;2023-05-12T02:23:16;99490.69;;;12.99;100.00
10638;BME280;47007;49.252;8.904;2023-05-12T02:23:58;99487.44;;;12.97;100.00
10638;BME280;47007;49.252;8.904;2023-05-12T02:24:40;99482.13;;;12.90;100.00
10638;BME280;47007;49.252;8.904;2023-05-12T02:25:22;99480.06;;;12.92;100.00
10638;BME280;47007;49.252;8.904;2023-05-12T02:26:04;99485.81;;;12.89;100.00
10638;BME280;47007;49.252;8.904;2023-05-12T02:26:46;99484.38;;;12.87;100.00
10638;BME280;47007;49.252;8.904;2023-05-12T02:27:28;99479.69;;;12.82;100.00
10638;BME280;47007;49.252;8.904;2023-05-12T02:28:12;99485.41;;;12.79;100.00
10638;BME280;47007;49.252;8.904;2023-05-12T02:28:54;99481.50;;;12.75;100.00
10638;BME280;47007;49.252;8.904;2023-05-12T02:29:36;99486.44;;;12.72;100.00
10638;BME280;47007;49.252;8.904;2023-05-12T02:30:18;99485.63;;;12.71;100.00
10638;BME280;47007;49.252;8.904;2023-05-12T02:31:00;99464.16;;;12.59;100.00
10638;BME280;47007;49.252;8.904;2023-05-12T02:31:44;99474.78;;;12.59;100.00
10638;BME280;47007;49.252;8.904;2023-05-12T02:32:29;99490.94;;;12.65;100.00
10638;BME280;47007;49.252;8.904;2023-05-12T02:33:11;99471.09;;;12.54;100.00
10638;BME280;47007;49.252;8.904;2023-05-12T02:33:53;99478.88;;;12.55;100.00
10638;BME280;47007;49.252;8.904;2023-05-12T02:34:35;99484.81;;;12.57;100.00
10638;BME280;47007;49.252;8.904;2023-05-12T02:35:17;99486.63;;;12.57;100.00
10638;BME280;47007;49.252;8.904;2023-05-12T02:35:59;99485.00;;;12.56;100.00
10638;BME280;47007;49.252;8.904;2023-05-12T02:36:41;99483.38;;;12.55;100.00
10638;BME280;47007;49.252;8.904;2023-05-12T02:37:24;99485.19;;;12.54;100.00
10638;BME280;47007;49.252;8.904;2023-05-12T02:38:06;99485.19;;;12.54;100.00
10638;BME280;47007;49.252;8.904;2023-05-12T02:38:47;99486.22;;;12.53;100.00
10638;BME280;47007;49.252;8.904;2023-05-12T02:39:29;99482.75;;;12.53;100.00
10638;BME280;47007;49.252;8.904;2023-05-12T02:40:11;99484.38;;;12.54;100.00
10638;BME280;47007;49.252;8.904;2023-05-12T02:40:54;99484.59;;;12.52;100.00
10638;BME280;47007;49.252;8.904;2023-05-12T02:41:36;99481.53;;;12.55;100.00
10638;BME280;47007;49.252;8.904;2023-05-12T02:42:18;99486.84;;;12.55;100.00
10638;BME280;47007;49.252;8.904;2023-05-12T02:42:59;99489.31;;;12.57;100.00
10638;BME280;47007;49.252;8.904;2023-05-12T02:43:42;99484.81;;;12.57;100.00
10638;BME280;47007;49.252;8.904;2023-05-12T02:44:23;99484.81;;;12.57;100.00
10638;BME280;47007;49.252;8.904;2023-05-12T02:45:06;99485.81;;;12.56;100.00
10638;BME280;47007;49.252;8.904;2023-05-12T02:45:47;99485.81;;;12.56;100.00
10638;BME280;47007;49.252;8.904;2023-05-12T02:46:29;99475.59;;;12.53;100.00
10638;BME280;47007;49.252;8.904;2023-05-12T02:47:11;99480.09;;;12.53;100.00
10638;BME280;47007;49.252;8.904;2023-05-12T02:47:53;99466.59;;;12.48;100.00
10638;BME280;47007;49.252;8.904;2023-05-12T02:48:35;99489.91;;;12.52;100.00
10638;BME280;47007;49.252;8.904;2023-05-12T02:49:16;99481.31;;;12.50;100.00
10638;BME280;47007;49.252;8.904;2023-05-12T02:49:59;99483.78;;;12.45;100.00
10638;BME280;47007;49.252;8.904;2023-05-12T02:50:41;99473.31;;;12.37;100.00
10638;BME280;47007;49.252;8.904;2023-05-12T02:51:23;99477.63;;;12.38;100.00
10638;BME280;47007;49.252;8.904;2023-05-12T02:52:05;99473.56;;;12.36;100.00
10638;BME280;47007;49.252;8.904;2023-05-12T02:52:47;99477.03;;;12.36;100.00
10638;BME280;47007;49.252;8.904;2023-05-12T02:53:29;99480.47;;;12.37;100.00
10638;BME280;47007;49.252;8.904;2023-05-12T02:54:11;99472.72;;;12.35;100.00
10638;BME280;47007;49.252;8.904;2023-05-12T02:54:53;99480.09;;;12.33;100.00
10638;BME280;47007;49.252;8.904;2023-05-12T02:55:34;99470.66;;;12.31;100.00
10638;BME280;47007;49.252;8.904;2023-05-12T02:56:16;99475.78;;;12.32;100.00
10638;BME280;47007;49.252;8.904;2023-05-12T02:57:03;99469.22;;;12.28;100.00
10638;BME280;47007;49.252;8.904;2023-05-12T02:57:45;99477.22;;;12.35;100.00
10638;BME280;47007;49.252;8.904;2023-05-12T02:58:26;99482.53;;;12.35;100.00
10638;BME280;47007;49.252;8.904;2023-05-12T02:59:11;99480.69;;;12.35;100.00
10638;BME280;47007;49.252;8.904;2023-05-12T02:59:53;99464.94;;;12.27;100.00
10638;BME280;47007;49.252;8.904;2023-05-12T03:00:35;99477.44;;;12.33;100.00
10638;BME280;47007;49.252;8.904;2023-05-12T03:01:16;99478.88;;;12.36;100.00
10638;BME280;47007;49.252;8.904;2023-05-12T03:01:58;99469.22;;;12.28;100.00
10638;BME280;47007;49.252;8.904;2023-05-12T03:02:40;99475.59;;;12.34;100.00
10638;BME280;47007;49.252;8.904;2023-05-12T03:03:22;99481.53;;;12.36;100.00
10638;BME280;47007;49.252;8.904;2023-05-12T03:04:04;99486.03;;;12.35;100.00
10638;BME280;47007;49.252;8.904;2023-05-12T03:04:46;99468.59;;;12.26;100.00
10638;BME280;47007;49.252;8.904;2023-05-12T03:05:27;99470.25;;;12.27;100.00
10638;BME280;47007;49.252;8.904;2023-05-12T03:06:09;99479.84;;;12.28;100.00
10638;BME280;47007;49.252;8.904;2023-05-12T03:06:51;99481.69;;;12.28;100.00
10638;BME280;47007;49.252;8.904;2023-05-12T03:07:33;99480.06;;;12.27;100.00
10638;BME280;47007;49.252;8.904;2023-05-12T03:08:15;99486.19;;;12.27;100.00
10638;BME280;47007;49.252;8.904;2023-05-12T03:08:57;99471.28;;;12.19;100.00
10638;BME280;47007;49.252;8.904;2023-05-12T03:09:40;99480.88;;;12.27;100.00
10638;BME280;47007;49.252;8.904;2023-05-12T03:10:21;99473.91;;;12.26;100.00
10638;BME280;47007;49.252;8.904;2023-05-12T03:11:04;99478.03;;;12.29;100.00
10638;BME280;47007;49.252;8.904;2023-05-12T03:11:46;99483.13;;;12.30;100.00
10638;BME280;47007;49.252;8.904;2023-05-12T03:12:27;99485.78;;;12.30;100.00
10638;BME280;47007;49.252;8.904;2023-05-12T03:13:10;99479.66;;;12.30;100.00
10638;BME280;47007;49.252;8.904;2023-05-12T03:13:52;99478.84;;;12.29;100.00
10638;BME280;47007;49.252;8.904;2023-05-12T03:14:34;99481.50;;;12.29;100.00
10638;BME280;47007;49.252;8.904;2023-05-12T03:15:16;99466.78;;;12.20;100.00
10638;BME280;47007;49.252;8.904;2023-05-12T03:15:58;99478.84;;;12.29;100.00
10638;BME280;47007;49.252;8.904;2023-05-12T03:16:42;99473.53;;;12.29;100.00
10638;BME280;47007;49.252;8.904;2023-05-12T03:17:24;99474.34;;;12.23;100.00
10638;BME280;47007;49.252;8.904;2023-05-12T03:18:06;99480.06;;;12.27;100.00
10638;BME280;47007;49.252;8.904;2023-05-12T03:18:48;99477.19;;;12.28;100.00
10638;BME280;47007;49.252;8.904;2023-05-12T03:19:30;99481.09;;;12.32;100.00
10638;BME280;47007;49.252;8.904;2023-05-12T03:20:12;99479.25;;;12.33;100.00
10638;BME280;47007;49.252;8.904;2023-05-12T03:20:54;99487.66;;;12.36;100.00
10638;BME280;47007;49.252;8.904;2023-05-12T03:21:37;99485.59;;;12.38;100.00
10638;BME280;47007;49.252;8.904;2023-05-12T03:22:19;99481.72;;;12.41;100.00
10638;BME280;47007;49.252;8.904;2023-05-12T03:23:01;99488.66;;;12.42;100.00
10638;BME280;47007;49.252;8.904;2023-05-12T03:23:44;99475.97;;;12.37;100.00
10638;BME280;47007;49.252;8.904;2023-05-12T03:24:26;99479.69;;;12.43;100.00
10638;BME280;47007;49.252;8.904;2023-05-12T03:25:08;99476.00;;;12.44;100.00
10638;BME280;47007;49.252;8.904;2023-05-12T03:25:50;99481.94;;;12.46;100.00
10638;BME280;47007;49.252;8.904;2023-05-12T03:26:32;99481.72;;;12.47;100.00
10638;BME280;47007;49.252;8.904;2023-05-12T03:27:14;99483.38;;;12.48;100.00
10638;BME280;47007;49.252;8.904;2023-05-12T03:27:55;99485.59;;;12.51;100.00
10638;BME280;47007;49.252;8.904;2023-05-12T03:28:38;99480.09;;;12.53;100.00
10638;BME280;47007;49.252;8.904;2023-05-12T03:29:20;99482.53;;;12.54;100.00
10638;BME280;47007;49.252;8.904;2023-05-12T03:30:02;99482.53;;;12.54;100.00
10638;BME280;47007;49.252;8.904;2023-05-12T03:30:48;99474.34;;;12.49;100.00
10638;BME280;47007;49.252;8.904;2023-05-12T03:31:30;99478.66;;;12.57;100.00
10638;BME280;47007;49.252;8.904;2023-05-12T03:32:12;99481.13;;;12.58;100.00
10638;BME280;47007;49.252;8.904;2023-05-12T03:32:54;99483.78;;;12.58;100.00
10638;BME280;47007;49.252;8.904;2023-05-12T03:33:36;99477.66;;;12.58;100.00
10638;BME280;47007;49.252;8.904;2023-05-12T03:34:18;99478.03;;;12.62;100.00
10638;BME280;47007;49.252;8.904;2023-05-12T03:34:59;99485.00;;;12.63;100.00
10638;BME280;47007;49.252;8.904;2023-05-12T03:35:41;99477.63;;;12.65;100.00
10638;BME280;47007;49.252;8.904;2023-05-12T03:36:23;99484.59;;;12.66;100.00
10638;BME280;47007;49.252;8.904;2023-05-12T03:37:05;99471.09;;;12.61;100.00
10638;BME280;47007;49.252;8.904;2023-05-12T03:37:47;99486.22;;;12.67;100.00
10638;BME280;47007;49.252;8.904;2023-05-12T03:38:29;99470.50;;;12.58;100.00
10638;BME280;47007;49.252;8.904;2023-05-12T03:39:10;99477.22;;;12.68;100.00
10638;BME280;47007;49.252;8.904;2023-05-12T03:39:52;99479.28;;;12.66;100.00
10638;BME280;47007;49.252;8.904;2023-05-12T03:40:36;99480.91;;;12.67;100.00
10638;BME280;47007;49.252;8.904;2023-05-12T03:41:18;99481.53;;;12.69;100.00
10638;BME280;47007;49.252;8.904;2023-05-12T03:42:00;99482.34;;;12.69;100.00
10638;BME280;47007;49.252;8.904;2023-05-12T03:42:42;99481.94;;;12.72;100.00
10638;BME280;47007;49.252;8.904;2023-05-12T03:43:23;99473.56;;;12.69;100.00